Time;durP1;ratioP1;P1;durP2;ratioP2;P2;SDS_P1;SDS_P2;PMS_P1;PMS_P2;Temp;Humidity;BMP_temperature;BMP_pressure;BME280_temperature;BME280_humidity;BME280_pressure;Samples;Min_cycle;Max_cycle;Signal;HPM_P1;HPM_P2
2022/02/20 00:01:27;;;;;;;8.37;3.80;;;7.00;99.90;;;;;;5022939;28;20519;-39
2022/02/20 00:03:52;;;;;;;7.83;2.93;;;7.00;99.90;;;;;;5024944;28;20457;-40
2022/02/20 00:06:18;;;;;;;7.53;3.40;;;6.90;99.90;;;;;;5029207;28;20213;-39
2022/02/20 00:08:44;;;;;;;7.87;3.30;;;7.00;99.90;;;;;;5029170;28;20735;-39
2022/02/20 00:11:10;;;;;;;7.90;3.27;;;6.90;99.90;;;;;;5029032;28;20187;-39
2022/02/20 00:13:35;;;;;;;10.33;4.07;;;7.20;99.90;;;;;;5029056;28;20193;-39
2022/02/20 00:16:01;;;;;;;9.93;3.33;;;7.10;99.90;;;;;;5028140;28;20198;-40
2022/02/20 00:18:27;;;;;;;10.70;4.20;;;7.10;99.90;;;;;;5021528;28;20221;-39
2022/02/20 00:20:53;;;;;;;8.97;3.40;;;7.00;99.90;;;;;;5028437;28;20958;-39
2022/02/20 00:23:19;;;;;;;8.97;3.37;;;6.90;99.90;;;;;;5048354;28;20186;-39
2022/02/20 00:25:46;;;;;;;5.83;3.57;;;7.10;99.90;;;;;;5038530;28;20187;-39
2022/02/20 00:28:12;;;;;;;11.20;3.30;;;7.30;99.90;;;;;;5048962;28;21083;-39
2022/02/20 00:30:38;;;;;;;8.97;3.00;;;7.30;99.90;;;;;;5048208;28;20424;-39
2022/02/20 00:33:04;;;;;;;5.13;2.97;;;7.20;99.90;;;;;;5023608;28;20433;-39
2022/02/20 00:35:32;;;;;;;3.33;2.70;;;7.10;99.90;;;;;;5029067;28;20604;-39
2022/02/20 00:37:58;;;;;;;7.60;3.47;;;7.20;99.90;;;;;;5015887;28;20413;-39
2022/02/20 00:40:24;;;;;;;5.13;2.67;;;7.00;99.90;;;;;;5027944;28;20417;-39
2022/02/20 00:42:51;;;;;;;9.80;2.60;;;7.10;99.90;;;;;;5028757;28;20248;-40
2022/02/20 00:45:17;;;;;;;6.20;2.83;;;6.90;99.90;;;;;;5028325;28;20427;-39
2022/02/20 00:47:42;;;;;;;5.63;3.03;;;6.90;99.90;;;;;;5021847;28;20956;-39
2022/02/20 00:50:09;;;;;;;7.13;2.60;;;7.00;99.90;;;;;;5025665;28;20225;-39
2022/02/20 00:52:34;;;;;;;7.37;3.10;;;6.70;99.90;;;;;;5029047;28;20187;-39
2022/02/20 00:55:00;;;;;;;6.47;3.80;;;6.80;99.90;;;;;;5028593;28;20951;-39
2022/02/20 00:57:26;;;;;;;5.57;2.90;;;6.70;99.90;;;;;;5028123;28;20206;-39
2022/02/20 00:59:52;;;;;;;6.13;2.60;;;6.80;99.90;;;;;;5027530;28;20465;-39
2022/02/20 01:02:18;;;;;;;6.63;3.10;;;7.10;99.90;;;;;;5021402;28;20225;-38
2022/02/20 01:04:44;;;;;;;4.50;3.27;;;6.80;99.90;;;;;;5021457;28;20417;-39
2022/02/20 01:07:10;;;;;;;4.93;3.10;;;6.90;99.90;;;;;;5028087;28;20424;-39
2022/02/20 01:09:36;;;;;;;7.93;3.37;;;7.00;99.90;;;;;;5027905;28;20198;-39
2022/02/20 01:12:02;;;;;;;5.93;3.30;;;6.70;99.90;;;;;;5027698;28;20428;-39
2022/02/20 01:14:28;;;;;;;7.50;4.60;;;7.00;99.90;;;;;;5028049;28;20430;-39
2022/02/20 01:16:54;;;;;;;6.57;2.77;;;6.90;99.90;;;;;;5022916;28;20499;-39
2022/02/20 01:19:20;;;;;;;6.80;3.50;;;6.80;99.90;;;;;;5022089;28;20244;-39
2022/02/20 01:21:45;;;;;;;3.90;2.90;;;6.50;99.90;;;;;;5026183;28;20182;-39
2022/02/20 01:24:11;;;;;;;7.50;3.20;;;6.60;99.90;;;;;;5028127;28;20931;-40
2022/02/20 01:26:37;;;;;;;5.87;3.63;;;6.60;99.90;;;;;;5028036;28;20669;-39
2022/02/20 01:29:04;;;;;;;4.80;2.53;;;6.70;99.90;;;;;;5027821;28;20202;-38
2022/02/20 01:31:30;;;;;;;3.73;2.50;;;6.70;99.90;;;;;;5026533;28;20433;-39
2022/02/20 01:33:55;;;;;;;5.47;2.60;;;6.50;99.90;;;;;;5014663;28;20963;-39
2022/02/20 01:36:21;;;;;;;2.93;2.00;;;6.40;99.90;;;;;;5027800;28;20440;-38
2022/02/20 01:38:47;;;;;;;2.87;1.93;;;6.40;99.90;;;;;;5026341;28;20218;-38
2022/02/20 01:41:17;;;;;;;3.97;1.57;;;6.40;99.90;;;;;;5027017;28;20177;-38
2022/02/20 01:43:42;;;;;;;4.63;2.83;;;6.40;99.90;;;;;;5027392;28;20340;-38
2022/02/20 01:46:08;;;;;;;6.80;2.30;;;6.60;99.90;;;;;;5027215;28;20731;-38
2022/02/20 01:48:36;;;;;;;6.63;2.40;;;6.20;99.90;;;;;;5014815;28;20669;-39
2022/02/20 01:51:02;;;;;;;5.70;2.70;;;6.20;99.90;;;;;;5026965;28;20221;-39
2022/02/20 01:53:28;;;;;;;4.90;2.53;;;6.20;99.90;;;;;;5027698;28;20433;-38
2022/02/20 01:55:54;;;;;;;4.83;3.00;;;6.30;99.90;;;;;;5027281;28;20520;-38
2022/02/20 01:58:20;;;;;;;4.77;2.60;;;6.00;99.90;;;;;;5026941;28;20285;-38
2022/02/20 02:00:46;;;;;;;3.70;2.60;;;6.20;99.90;;;;;;5026823;28;20186;-38
2022/02/20 02:03:15;;;;;;;4.60;2.70;;;6.30;99.90;;;;;;5016518;28;20195;-39
2022/02/20 02:05:41;;;;;;;6.07;2.97;;;6.20;99.90;;;;;;5026935;28;20509;-39
2022/02/20 02:08:07;;;;;;;3.80;2.50;;;6.00;99.90;;;;;;5027357;28;20429;-39
2022/02/20 02:10:33;;;;;;;6.80;2.90;;;6.20;99.90;;;;;;5026643;28;20429;-38
2022/02/20 02:12:58;;;;;;;3.97;2.57;;;6.20;99.90;;;;;;5027000;28;20225;-38
2022/02/20 02:15:24;;;;;;;7.53;2.57;;;6.20;99.90;;;;;;5027310;28;20679;-38
2022/02/20 02:17:50;;;;;;;7.43;2.83;;;6.10;99.90;;;;;;5020613;28;20214;-38
2022/02/20 02:20:15;;;;;;;6.50;2.70;;;6.30;99.90;;;;;;5033194;28;20227;-39
2022/02/20 02:22:41;;;;;;;5.53;3.00;;;6.10;99.90;;;;;;5027297;28;20616;-39
2022/02/20 02:25:08;;;;;;;5.03;2.87;;;6.40;99.90;;;;;;5027347;28;20190;-38
2022/02/20 02:27:35;;;;;;;4.80;3.00;;;6.20;99.90;;;;;;5027203;28;20689;-38
2022/02/20 02:30:04;;;;;;;5.93;2.83;;;6.20;99.90;;;;;;5026624;28;20429;-38
2022/02/20 02:32:29;;;;;;;8.60;3.20;;;6.00;99.90;;;;;;5020848;28;20585;-39
2022/02/20 02:34:55;;;;;;;4.80;2.30;;;6.20;99.90;;;;;;5023677;28;20568;-39
2022/02/20 02:37:22;;;;;;;4.40;3.20;;;6.10;99.90;;;;;;5026789;28;20221;-38
2022/02/20 02:39:47;;;;;;;10.57;3.63;;;6.30;99.90;;;;;;5026439;28;20218;-38
2022/02/20 02:42:13;;;;;;;6.27;3.40;;;6.30;99.90;;;;;;5026484;28;20425;-39
2022/02/20 02:44:40;;;;;;;5.60;3.27;;;6.50;99.90;;;;;;5026019;28;20545;-38
2022/02/20 02:47:07;;;;;;;3.43;3.10;;;6.20;99.90;;;;;;5025091;28;20498;-39
2022/02/20 02:49:34;;;;;;;4.10;3.27;;;6.30;99.90;;;;;;5017946;28;20430;-38
2022/02/20 02:52:00;;;;;;;5.10;2.70;;;6.30;99.90;;;;;;5026520;28;20433;-38
2022/02/20 02:54:26;;;;;;;5.40;3.27;;;6.30;99.90;;;;;;5026642;28;20479;-39
2022/02/20 02:56:51;;;;;;;4.67;3.13;;;6.20;99.90;;;;;;5027672;28;20294;-38
2022/02/20 02:59:18;;;;;;;4.20;2.40;;;6.30;99.90;;;;;;5030797;28;20437;-38
2022/02/20 03:01:45;;;;;;;6.90;2.90;;;6.20;99.90;;;;;;5030078;28;20187;-38
2022/02/20 03:04:11;;;;;;;6.00;3.27;;;6.30;99.90;;;;;;5021477;28;20942;-38
2022/02/20 03:06:37;;;;;;;5.20;2.97;;;6.20;99.90;;;;;;5030440;28;20449;-38
2022/02/20 03:09:04;;;;;;;8.03;3.10;;;6.20;99.90;;;;;;5030139;28;20705;-38
2022/02/20 03:11:30;;;;;;;9.33;4.30;;;6.40;99.90;;;;;;5029856;28;20289;-38
2022/02/20 03:13:56;;;;;;;5.37;2.80;;;6.10;99.90;;;;;;5030468;28;20991;-39
2022/02/20 03:16:22;;;;;;;5.90;2.60;;;6.10;99.90;;;;;;5030637;28;20479;-39
2022/02/20 03:18:48;;;;;;;8.40;3.20;;;6.20;99.90;;;;;;5024358;28;20352;-38
2022/02/20 03:21:13;;;;;;;10.00;3.90;;;6.10;99.90;;;;;;5035180;28;21069;-38
2022/02/20 03:23:39;;;;;;;6.03;3.27;;;6.20;99.90;;;;;;5030025;28;20559;-38
2022/02/20 03:26:05;;;;;;;5.13;2.80;;;6.30;99.90;;;;;;5030062;28;20194;-39
2022/02/20 03:28:31;;;;;;;3.73;2.40;;;6.20;99.90;;;;;;5029050;28;20446;-38
2022/02/20 03:30:56;;;;;;;4.23;2.30;;;6.30;99.90;;;;;;5029337;28;20284;-38
2022/02/20 03:33:22;;;;;;;3.33;2.00;;;6.00;99.90;;;;;;5021888;28;20545;-38
2022/02/20 03:35:48;;;;;;;5.47;2.33;;;6.00;99.90;;;;;;5029651;28;20221;-38
2022/02/20 03:38:14;;;;;;;4.13;2.30;;;6.20;99.90;;;;;;5029967;28;21112;-38
2022/02/20 03:40:40;;;;;;;2.40;1.80;;;6.30;99.90;;;;;;5029227;28;20205;-38
2022/02/20 03:43:06;;;;;;;5.30;2.37;;;6.40;99.90;;;;;;5029856;28;20568;-39
2022/02/20 03:45:32;;;;;;;5.50;2.93;;;6.20;99.90;;;;;;5029812;28;20441;-38
2022/02/20 03:47:58;;;;;;;4.00;3.30;;;6.20;99.90;;;;;;5023774;28;20504;-38
2022/02/20 03:50:26;;;;;;;5.83;3.27;;;6.20;99.90;;;;;;5028251;28;20194;-38
2022/02/20 03:52:52;;;;;;;4.30;3.90;;;6.20;99.90;;;;;;5029751;28;20499;-38
2022/02/20 03:55:18;;;;;;;6.50;3.60;;;6.10;99.90;;;;;;5029877;28;20425;-38
2022/02/20 03:57:45;;;;;;;4.80;3.50;;;6.00;99.90;;;;;;5029394;28;20445;-38
2022/02/20 04:00:14;;;;;;;5.67;3.63;;;6.00;99.90;;;;;;5029189;28;20500;-38
2022/02/20 04:02:40;;;;;;;4.73;4.20;;;6.20;99.90;;;;;;5025101;28;20421;-39
2022/02/20 04:05:08;;;;;;;7.57;3.67;;;6.00;99.90;;;;;;5017436;28;20450;-38
2022/02/20 04:07:34;;;;;;;15.80;4.30;;;6.10;99.90;;;;;;5028994;28;20417;-38
2022/02/20 04:10:04;;;;;;;4.60;3.90;;;6.00;99.90;;;;;;5028938;28;20433;-38
2022/02/20 04:12:30;;;;;;;4.80;3.83;;;6.00;99.90;;;;;;5029277;28;20508;-38
2022/02/20 04:14:56;;;;;;;4.27;3.73;;;5.80;99.90;;;;;;5029870;28;20774;-38
2022/02/20 04:17:22;;;;;;;6.30;3.60;;;6.10;99.90;;;;;;5029193;28;20202;-38
2022/02/20 04:19:49;;;;;;;4.80;3.60;;;6.00;99.90;;;;;;5014385;28;21034;-38
2022/02/20 04:22:15;;;;;;;4.00;3.60;;;5.90;99.90;;;;;;5027980;28;20436;-38
2022/02/20 04:24:42;;;;;;;3.40;3.10;;;6.00;99.90;;;;;;5029136;28;20421;-38
2022/02/20 04:27:07;;;;;;;5.13;2.60;;;6.10;99.90;;;;;;5029078;28;20449;-38
2022/02/20 04:29:33;;;;;;;8.80;2.90;;;6.10;99.90;;;;;;5028727;28;20696;-38
2022/02/20 04:31:59;;;;;;;4.57;2.23;;;6.00;99.90;;;;;;5028930;28;20627;-38
2022/02/20 04:34:25;;;;;;;5.80;2.67;;;6.00;99.90;;;;;;5015577;28;20758;-38
2022/02/20 04:36:51;;;;;;;3.50;2.50;;;6.10;99.90;;;;;;5027395;28;20468;-38
2022/02/20 04:39:17;;;;;;;3.73;2.10;;;6.00;99.90;;;;;;5025172;28;21034;-38
2022/02/20 04:41:43;;;;;;;4.63;2.53;;;6.10;99.90;;;;;;5028035;28;20428;-38
2022/02/20 04:44:09;;;;;;;4.83;2.70;;;6.00;99.90;;;;;;5028539;28;20654;-38
2022/02/20 04:46:35;;;;;;;4.20;2.50;;;6.20;99.90;;;;;;5024760;28;20286;-38
2022/02/20 04:49:06;;;;;;;6.93;2.33;;;6.20;99.90;;;;;;5018866;28;20498;-38
2022/02/20 04:51:33;;;;;;;3.10;2.33;;;6.00;99.90;;;;;;5025196;28;20788;-38
2022/02/20 04:54:03;;;;;;;2.90;2.20;;;6.00;99.90;;;;;;5028526;28;20436;-38
2022/02/20 04:56:29;;;;;;;8.10;2.50;;;6.10;99.90;;;;;;5028443;28;20453;-38
2022/02/20 04:58:55;;;;;;;2.83;1.87;;;5.90;99.90;;;;;;5028572;28;20461;-38
2022/02/20 05:01:22;;;;;;;2.83;2.13;;;5.80;99.90;;;;;;5026932;28;21135;-38
2022/02/20 05:03:48;;;;;;;4.97;2.40;;;6.00;99.90;;;;;;5024296;28;20209;-38
2022/02/20 05:06:14;;;;;;;4.03;2.30;;;5.90;99.90;;;;;;5022893;28;20423;-38
2022/02/20 05:08:40;;;;;;;2.10;1.90;;;5.90;99.90;;;;;;5028285;28;21058;-38
2022/02/20 05:11:06;;;;;;;4.17;2.47;;;5.90;99.90;;;;;;5027558;28;20432;-38
2022/02/20 05:13:31;;;;;;;7.47;2.97;;;5.70;99.90;;;;;;5027229;28;20927;-38
2022/02/20 05:15:57;;;;;;;5.13;2.90;;;5.50;99.90;;;;;;5028205;28;20190;-38
2022/02/20 05:18:23;;;;;;;3.63;2.37;;;5.80;99.90;;;;;;5022958;28;20660;-38
2022/02/20 05:20:54;;;;;;;6.37;2.63;;;5.60;99.90;;;;;;5017700;28;20461;-38
2022/02/20 05:23:21;;;;;;;4.27;2.43;;;5.90;99.90;;;;;;5027607;28;20197;-38
2022/02/20 05:25:48;;;;;;;4.10;2.50;;;5.60;99.90;;;;;;5028042;28;20457;-38
2022/02/20 05:28:13;;;;;;;5.00;2.90;;;5.80;99.90;;;;;;5026479;28;20711;-38
2022/02/20 05:30:39;;;;;;;3.60;2.00;;;5.80;99.90;;;;;;5025899;28;20686;-39
2022/02/20 05:33:04;;;;;;;5.53;3.93;;;5.90;99.90;;;;;;5025235;28;20194;-38
2022/02/20 05:35:30;;;;;;;4.47;2.47;;;5.90;99.90;;;;;;5018947;28;20195;-38
2022/02/20 05:37:57;;;;;;;5.60;3.50;;;5.90;99.90;;;;;;5026863;28;20684;-38
2022/02/20 05:40:23;;;;;;;5.97;3.17;;;5.80;99.90;;;;;;5020053;28;20210;-38
2022/02/20 05:42:50;;;;;;;4.83;3.10;;;5.90;99.90;;;;;;5027354;28;20413;-38
2022/02/20 05:45:15;;;;;;;5.67;3.10;;;5.60;99.90;;;;;;5027602;28;20417;-38
2022/02/20 05:47:41;;;;;;;4.30;3.37;;;6.00;99.90;;;;;;5027321;28;20745;-38
2022/02/20 05:50:09;;;;;;;9.40;3.33;;;6.00;99.90;;;;;;5019269;28;20198;-38
2022/02/20 05:52:35;;;;;;;7.53;3.20;;;6.10;99.90;;;;;;5026499;28;20210;-38
2022/02/20 05:55:01;;;;;;;6.53;4.23;;;6.20;99.90;;;;;;5027439;28;20425;-38
2022/02/20 05:57:27;;;;;;;6.63;3.83;;;6.30;99.90;;;;;;5027620;28;20452;-38
2022/02/20 05:59:53;;;;;;;5.07;3.37;;;6.50;99.90;;;;;;5024346;28;20476;-38
2022/02/20 06:02:18;;;;;;;6.00;4.00;;;6.40;99.90;;;;;;5027505;28;20186;-38
2022/02/20 06:04:44;;;;;;;9.27;3.90;;;6.20;99.90;;;;;;5015474;28;20187;-38
2022/02/20 06:07:10;;;;;;;8.07;4.57;;;6.30;99.90;;;;;;5027155;28;20210;-38
2022/02/20 06:09:36;;;;;;;6.33;3.90;;;6.50;99.90;;;;;;5026581;28;20224;-38
2022/02/20 06:12:02;;;;;;;10.47;4.80;;;6.40;99.90;;;;;;5026963;28;20425;-38
2022/02/20 06:14:28;;;;;;;9.03;4.10;;;6.30;99.90;;;;;;5026836;28;20425;-38
2022/02/20 06:16:54;;;;;;;6.07;4.40;;;6.30;99.90;;;;;;5024593;28;20425;-38
2022/02/20 06:19:19;;;;;;;8.80;4.50;;;6.20;99.90;;;;;;5016097;28;20226;-39
2022/02/20 06:21:45;;;;;;;7.57;4.07;;;6.10;99.90;;;;;;5025723;28;20190;-38
2022/02/20 06:24:11;;;;;;;7.43;4.93;;;6.30;99.90;;;;;;5026732;28;20194;-38
2022/02/20 06:26:37;;;;;;;7.33;4.60;;;6.20;99.90;;;;;;5025035;28;20727;-38
2022/02/20 06:29:03;;;;;;;5.47;4.37;;;6.50;99.90;;;;;;5026466;28;20205;-38
2022/02/20 06:31:30;;;;;;;8.00;4.60;;;6.30;99.90;;;;;;5023825;28;20433;-38
2022/02/20 06:33:55;;;;;;;15.90;5.23;;;6.40;99.90;;;;;;5029663;28;20233;-38
2022/02/20 06:36:22;;;;;;;9.77;5.03;;;6.50;99.90;;;;;;5023547;28;20465;-38
2022/02/20 06:38:48;;;;;;;11.87;4.63;;;6.30;99.90;;;;;;5031094;28;20206;-38
2022/02/20 06:41:14;;;;;;;8.50;4.97;;;6.30;99.90;;;;;;5030215;28;20494;-38
2022/02/20 06:43:40;;;;;;;7.37;4.90;;;6.30;99.90;;;;;;5029609;28;20509;-38
2022/02/20 06:46:05;;;;;;;9.00;5.00;;;6.20;99.90;;;;;;5031072;28;20489;-38
2022/02/20 06:48:32;;;;;;;6.00;4.20;;;6.50;99.90;;;;;;5029885;28;20233;-39
2022/02/20 06:50:58;;;;;;;10.60;5.23;;;6.40;99.90;;;;;;5018389;28;20563;-38
2022/02/20 06:53:23;;;;;;;8.07;4.63;;;6.30;99.90;;;;;;5029455;28;20759;-38
2022/02/20 06:55:49;;;;;;;8.63;4.57;;;6.40;99.90;;;;;;5027071;28;21151;-38
2022/02/20 06:58:15;;;;;;;11.07;4.80;;;6.30;99.90;;;;;;5030224;28;20202;-38
2022/02/20 07:00:41;;;;;;;8.23;4.50;;;6.60;99.90;;;;;;5030333;28;20361;-38
2022/02/20 07:03:07;;;;;;;8.97;3.97;;;6.50;99.90;;;;;;5030129;28;20463;-38
2022/02/20 07:05:32;;;;;;;10.80;5.50;;;6.50;99.90;;;;;;5021854;28;20441;-38
2022/02/20 07:07:59;;;;;;;11.10;3.70;;;6.50;99.90;;;;;;5027292;28;20284;-38
2022/02/20 07:10:25;;;;;;;10.60;4.20;;;6.60;99.90;;;;;;5028021;28;20193;-38
2022/02/20 07:12:52;;;;;;;11.40;4.53;;;6.40;99.90;;;;;;5030058;28;20475;-38
2022/02/20 07:15:18;;;;;;;11.73;3.97;;;6.60;99.90;;;;;;5030491;28;20448;-38
2022/02/20 07:17:44;;;;;;;8.73;4.90;;;6.60;99.90;;;;;;5042636;28;20477;-38
2022/02/20 07:20:10;;;;;;;10.77;3.87;;;6.60;99.90;;;;;;5025634;28;20260;-38
2022/02/20 07:22:36;;;;;;;7.17;3.70;;;6.70;99.90;;;;;;5029726;28;20513;-38
2022/02/20 07:25:03;;;;;;;8.90;4.50;;;6.90;99.90;;;;;;5027588;28;21113;-38
2022/02/20 07:27:40;;;;;;;10.13;3.97;;;6.90;99.90;;;;;;5029524;28;20427;-39
2022/02/20 07:30:07;;;;;;;13.03;4.97;;;6.90;99.90;;;;;;5029337;28;20483;-38
2022/02/20 07:32:34;;;;;;;13.07;4.20;;;7.00;99.90;;;;;;5030059;28;20433;-38
2022/02/20 07:34:59;;;;;;;8.50;4.30;;;7.10;99.90;;;;;;5020705;28;20802;-38
2022/02/20 07:37:28;;;;;;;8.93;3.70;;;7.00;99.90;;;;;;5027522;28;20422;-39
2022/02/20 07:39:54;;;;;;;11.00;4.10;;;7.00;99.90;;;;;;5027711;28;20572;-38
2022/02/20 07:42:20;;;;;;;9.13;4.30;;;7.20;99.90;;;;;;5029451;28;20420;-38
2022/02/20 07:44:46;;;;;;;11.30;3.93;;;7.20;99.90;;;;;;5029695;28;20425;-39
2022/02/20 07:47:11;;;;;;;9.63;4.13;;;7.00;99.90;;;;;;5027737;28;20516;-38
2022/02/20 07:49:37;;;;;;;10.27;3.43;;;7.10;99.90;;;;;;5024402;28;20195;-38
2022/02/20 07:52:03;;;;;;;17.90;5.03;;;7.10;99.90;;;;;;5024814;28;20191;-38
2022/02/20 07:54:29;;;;;;;9.57;4.10;;;7.00;99.90;;;;;;5029397;28;20277;-38
2022/02/20 07:56:55;;;;;;;9.47;3.63;;;7.30;99.90;;;;;;5027711;28;20452;-38
2022/02/20 07:59:20;;;;;;;12.37;4.00;;;7.30;99.90;;;;;;5019700;28;20693;-38
2022/02/20 08:01:48;;;;;;;10.23;3.60;;;7.20;99.90;;;;;;5030439;28;20607;-38
2022/02/20 08:04:14;;;;;;;9.87;4.43;;;7.20;99.90;;;;;;5025957;28;20273;-38
2022/02/20 08:06:40;;;;;;;8.07;3.80;;;7.40;99.90;;;;;;5024031;28;20413;-39
2022/02/20 08:09:06;;;;;;;8.00;4.07;;;7.20;99.90;;;;;;5028499;28;20425;-38
2022/02/20 08:11:32;;;;;;;8.13;4.70;;;7.30;99.90;;;;;;5027475;28;20229;-39
2022/02/20 08:13:59;;;;;;;10.60;4.17;;;7.30;99.90;;;;;;5028584;28;20183;-38
2022/02/20 08:16:26;;;;;;;6.93;3.30;;;7.20;99.90;;;;;;5028490;28;20425;-38
2022/02/20 08:18:51;;;;;;;5.53;3.20;;;7.40;99.90;;;;;;5027156;28;20940;-38
2022/02/20 08:21:17;;;;;;;10.20;4.33;;;7.40;99.90;;;;;;5021958;28;20453;-39
2022/02/20 08:23:45;;;;;;;9.00;3.47;;;7.30;99.90;;;;;;5027743;28;20943;-39
2022/02/20 08:26:11;;;;;;;5.93;3.83;;;7.40;99.90;;;;;;5028137;28;20194;-39
2022/02/20 08:28:37;;;;;;;11.10;4.10;;;7.50;99.90;;;;;;5028103;28;20413;-39
2022/02/20 08:31:02;;;;;;;6.40;3.90;;;7.50;99.90;;;;;;5027375;28;20432;-39
2022/02/20 08:33:28;;;;;;;10.10;3.70;;;7.60;99.90;;;;;;5027276;28;20437;-39
2022/02/20 08:35:54;;;;;;;6.60;3.90;;;7.50;99.90;;;;;;5018590;28;20691;-39
2022/02/20 08:38:21;;;;;;;7.60;3.80;;;7.50;99.90;;;;;;5026997;28;20669;-39
2022/02/20 08:40:51;;;;;;;7.50;4.10;;;7.60;99.90;;;;;;5027498;28;20178;-39
2022/02/20 08:43:17;;;;;;;7.63;3.77;;;7.80;99.90;;;;;;5027899;28;20417;-39
2022/02/20 08:45:46;;;;;;;6.27;4.73;;;7.60;99.90;;;;;;5026421;28;20920;-40
2022/02/20 08:48:12;;;;;;;8.23;3.73;;;7.60;99.90;;;;;;5037683;28;20412;-39
2022/02/20 08:50:38;;;;;;;7.00;3.80;;;7.60;99.90;;;;;;5024907;28;20530;-39
2022/02/20 08:53:05;;;;;;;7.43;3.60;;;7.80;99.90;;;;;;5022481;28;20547;-39
2022/02/20 08:55:31;;;;;;;5.60;4.00;;;7.70;99.90;;;;;;5024937;28;20437;-39
2022/02/20 08:57:56;;;;;;;6.20;3.87;;;7.60;99.90;;;;;;5028678;28;20456;-39
2022/02/20 09:00:22;;;;;;;9.20;4.47;;;7.60;99.90;;;;;;5026410;28;20218;-39
2022/02/20 09:02:48;;;;;;;9.07;4.67;;;7.80;99.90;;;;;;5027192;28;20308;-39
2022/02/20 09:05:14;;;;;;;9.97;4.30;;;7.70;99.90;;;;;;5019475;28;20569;-39
2022/02/20 09:07:40;;;;;;;7.27;3.80;;;7.70;99.90;;;;;;5020103;28;20240;-40
2022/02/20 09:10:08;;;;;;;6.90;4.00;;;7.60;99.90;;;;;;5026171;28;20433;-40
2022/02/20 09:12:35;;;;;;;5.40;4.37;;;7.70;99.90;;;;;;5026850;28;20935;-40
2022/02/20 09:15:02;;;;;;;12.03;4.27;;;7.70;99.90;;;;;;5027344;28;20955;-39
2022/02/20 09:17:28;;;;;;;8.47;4.03;;;7.90;99.90;;;;;;5026039;28;20433;-40
2022/02/20 09:19:53;;;;;;;6.63;3.80;;;7.90;99.90;;;;;;5022715;28;20829;-40
2022/02/20 09:22:19;;;;;;;7.93;4.13;;;7.80;99.90;;;;;;5024785;28;20289;-39
2022/02/20 09:24:45;;;;;;;4.57;2.53;;;8.10;99.90;;;;;;5028567;28;20651;-40
2022/02/20 09:27:11;;;;;;;5.50;2.97;;;8.10;99.90;;;;;;5026727;28;20198;-40
2022/02/20 09:29:36;;;;;;;6.33;2.67;;;8.10;99.90;;;;;;5028896;28;20715;-40
2022/02/20 09:32:03;;;;;;;3.97;2.07;;;8.40;99.90;;;;;;5037674;28;20196;-39
2022/02/20 09:34:29;;;;;;;5.93;2.43;;;8.30;99.90;;;;;;5047082;28;20793;-40
2022/02/20 09:36:55;;;;;;;4.57;2.00;;;8.20;99.90;;;;;;5018317;28;20527;-38
2022/02/20 09:39:21;;;;;;;4.73;2.53;;;8.50;99.90;;;;;;5024565;28;20564;-39
2022/02/20 09:41:46;;;;;;;6.80;2.73;;;8.30;99.90;;;;;;5025773;28;20232;-39
2022/02/20 09:44:12;;;;;;;2.60;2.40;;;8.30;99.90;;;;;;5027946;28;20919;-40
2022/02/20 09:46:42;;;;;;;5.00;2.60;;;8.40;99.90;;;;;;5027469;28;20205;-41
2022/02/20 09:49:08;;;;;;;4.90;2.97;;;8.30;99.90;;;;;;5026006;28;20195;-39
2022/02/20 09:51:35;;;;;;;6.83;3.43;;;8.50;99.90;;;;;;5015045;28;20680;-43
2022/02/20 09:54:01;;;;;;;4.90;3.10;;;8.40;99.90;;;;;;5026493;28;20433;-42
2022/02/20 09:56:27;;;;;;;4.00;2.70;;;8.60;99.90;;;;;;5026521;28;20425;-42
2022/02/20 09:58:56;;;;;;;6.13;2.63;;;8.40;99.90;;;;;;5026128;28;20316;-39
2022/02/20 10:01:22;;;;;;;5.77;3.10;;;8.40;99.90;;;;;;5023207;28;20232;-39
2022/02/20 10:03:49;;;;;;;3.47;2.70;;;8.50;99.90;;;;;;5027151;28;20780;-40
2022/02/20 10:06:24;;;;;;;6.80;2.90;;;8.40;99.90;;;;;;5019800;28;20429;-39
2022/02/20 10:08:55;;;;;;;6.30;3.20;;;8.40;99.90;;;;;;5021339;28;20499;-41
2022/02/20 10:11:28;;;;;;;6.63;2.43;;;8.50;99.90;;;;;;5024515;28;20807;-39
2022/02/20 10:14:15;;;;;;;5.43;2.90;;;8.50;99.90;;;;;;5026314;28;20515;-39
2022/02/20 10:16:40;;;;;;;6.33;2.40;;;8.50;99.90;;;;;;5026538;28;20971;-40
2022/02/20 10:19:06;;;;;;;7.67;2.37;;;8.60;99.90;;;;;;5025737;28;20479;-40
2022/02/20 10:21:34;;;;;;;2.93;2.27;;;8.50;99.90;;;;;;5015910;28;20194;-40
2022/02/20 10:24:08;;;;;;;3.63;2.33;;;8.60;99.90;;;;;;5026247;28;20190;-39
2022/02/20 10:26:44;;;;;;;3.33;2.13;;;8.60;99.90;;;;;;5026063;28;20432;-40
2022/02/20 10:29:18;;;;;;;5.80;2.10;;;8.70;99.90;;;;;;5025302;28;20506;-40
2022/02/20 10:32:00;;;;;;;2.60;2.00;;;8.90;99.90;;;;;;5025624;28;20514;-39
2022/02/20 10:34:28;;;;;;;3.90;2.00;;;8.80;99.90;;;;;;5030896;28;20593;-39
2022/02/20 10:36:57;;;;;;;5.50;2.20;;;8.80;99.90;;;;;;5022065;28;20801;-39
2022/02/20 10:39:30;;;;;;;3.23;2.00;;;8.80;99.90;;;;;;5026238;28;20808;-39
2022/02/20 10:41:58;;;;;;;5.57;2.13;;;8.90;99.90;;;;;;5025326;28;20508;-40
2022/02/20 10:44:24;;;;;;;2.33;1.80;;;8.80;99.90;;;;;;5031623;28;20474;-41
2022/02/20 10:47:11;;;;;;;2.63;1.80;;;8.80;99.90;;;;;;5046021;28;20791;-40
2022/02/20 10:49:37;;;;;;;2.60;1.70;;;9.00;99.90;;;;;;5045210;28;20455;-40
2022/02/20 10:52:03;;;;;;;6.53;2.10;;;8.80;99.90;;;;;;5019731;28;20471;-39
2022/02/20 10:54:29;;;;;;;3.00;2.47;;;8.90;99.90;;;;;;5025690;28;20221;-39
2022/02/20 10:56:55;;;;;;;4.77;2.50;;;8.90;99.90;;;;;;5026205;28;20528;-41
2022/02/20 10:59:21;;;;;;;4.00;1.97;;;8.90;99.90;;;;;;5006064;28;20678;-40
2022/02/20 11:01:49;;;;;;;3.27;1.87;;;8.90;99.90;;;;;;5021961;28;20256;-40
2022/02/20 11:04:15;;;;;;;5.40;2.93;;;8.90;99.90;;;;;;5026446;28;20429;-39
2022/02/20 11:06:46;;;;;;;4.43;2.30;;;9.00;99.90;;;;;;5017291;28;20437;-39
2022/02/20 11:09:13;;;;;;;5.17;2.50;;;9.00;99.90;;;;;;5028428;28;20429;-39
2022/02/20 11:11:42;;;;;;;8.63;2.50;;;9.00;99.90;;;;;;5026186;28;20452;-39
2022/02/20 11:14:13;;;;;;;8.70;2.57;;;9.00;99.90;;;;;;5027777;28;20456;-40
2022/02/20 11:16:52;;;;;;;7.37;2.97;;;9.00;99.90;;;;;;5027032;28;20432;-40
2022/02/20 11:19:21;;;;;;;5.07;2.70;;;9.00;99.90;;;;;;5028606;28;20456;-41
2022/02/20 11:21:52;;;;;;;21.20;4.43;;;9.10;99.90;;;;;;5021418;28;20453;-40
2022/02/20 11:24:19;;;;;;;6.77;2.20;;;9.20;99.90;;;;;;5024875;28;20427;-40
2022/02/20 11:26:46;;;;;;;4.23;2.63;;;9.10;99.90;;;;;;5029672;28;20441;-40
2022/02/20 11:29:13;;;;;;;5.87;2.17;;;9.40;99.90;;;;;;5014849;28;20452;-40
2022/02/20 11:31:41;;;;;;;7.73;3.03;;;9.50;99.90;;;;;;5028948;28;20421;-40
2022/02/20 11:34:08;;;;;;;6.07;2.00;;;9.30;99.90;;;;;;5029909;28;20574;-40
2022/02/20 11:36:33;;;;;;;15.40;2.57;;;9.30;99.90;;;;;;5023495;28;20518;-41
2022/02/20 11:39:02;;;;;;;6.30;2.37;;;9.30;99.90;;;;;;5024378;28;20552;-40
2022/02/20 11:41:28;;;;;;;8.23;2.70;;;9.40;99.90;;;;;;5027434;28;20228;-39
2022/02/20 11:43:55;;;;;;;9.30;3.63;;;9.50;99.90;;;;;;5029321;28;20519;-40
2022/02/20 11:46:24;;;;;;;6.43;2.30;;;9.40;99.90;;;;;;5028313;28;20213;-43
2022/02/20 11:49:01;;;;;;;5.23;2.30;;;9.40;99.90;;;;;;5029686;28;20843;-41
2022/02/20 11:51:29;;;;;;;4.10;2.60;;;9.30;99.90;;;;;;5022386;28;20532;-39
2022/02/20 11:54:12;;;;;;;7.10;2.47;;;9.20;99.90;;;;;;5028063;28;20425;-40
2022/02/20 11:56:38;;;;;;;7.93;2.67;;;9.30;99.90;;;;;;5029337;28;20428;-41
2022/02/20 11:59:15;;;;;;;6.63;2.60;;;9.30;99.90;;;;;;5029521;28;20457;-40
2022/02/20 12:02:08;;;;;;;5.03;2.63;;;9.30;99.90;;;;;;5028280;28;20256;-41
2022/02/20 12:04:51;;;;;;;5.27;2.53;;;9.30;99.90;;;;;;5028773;28;20421;-40
2022/02/20 12:07:42;;;;;;;7.30;2.97;;;9.30;99.90;;;;;;5012416;28;20438;-40
2022/02/20 12:10:24;;;;;;;3.30;1.70;;;9.30;99.90;;;;;;5021315;28;20801;-40
2022/02/20 12:12:58;;;;;;;6.03;2.57;;;9.40;99.90;;;;;;5028896;28;20428;-40
2022/02/20 12:15:28;;;;;;;4.03;2.60;;;9.40;99.90;;;;;;5029609;28;20424;-40
2022/02/20 12:18:03;;;;;;;7.17;2.30;;;9.30;99.90;;;;;;5028178;28;20557;-40
2022/02/20 12:20:47;;;;;;;6.33;2.40;;;9.30;99.90;;;;;;5028419;28;20486;-40
2022/02/20 12:23:32;;;;;;;5.80;2.83;;;9.30;99.90;;;;;;5020355;28;20612;-40
2022/02/20 12:26:03;;;;;;;7.60;2.50;;;9.30;99.90;;;;;;5023367;28;20421;-40
2022/02/20 12:28:38;;;;;;;5.67;2.10;;;9.40;99.90;;;;;;5023227;28;20429;-40
2022/02/20 12:31:12;;;;;;;5.57;2.47;;;9.50;99.90;;;;;;5015121;28;20794;-40
2022/02/20 12:33:45;;;;;;;5.03;2.50;;;9.50;99.90;;;;;;5028405;28;20412;-40
2022/02/20 12:36:12;;;;;;;9.00;2.30;;;9.50;99.90;;;;;;5025477;28;20496;-40
2022/02/20 12:38:48;;;;;;;10.37;2.40;;;9.60;99.90;;;;;;5022077;28;20425;-40
2022/02/20 12:41:14;;;;;;;7.53;2.40;;;9.70;99.90;;;;;;5026946;28;20460;-39
2022/02/20 12:43:46;;;;;;;4.63;3.30;;;9.50;99.90;;;;;;5030129;28;20453;-40
2022/02/20 12:46:12;;;;;;;7.27;2.37;;;9.50;99.90;;;;;;5027817;28;20217;-41
2022/02/20 12:48:39;;;;;;;10.30;2.73;;;9.50;99.90;;;;;;5028456;28;20476;-39
2022/02/20 12:51:05;;;;;;;5.13;2.70;;;9.70;99.90;;;;;;5027263;28;20277;-40
2022/02/20 12:53:30;;;;;;;6.10;3.13;;;9.50;99.90;;;;;;5021845;28;20512;-40
2022/02/20 12:55:56;;;;;;;5.47;2.60;;;9.50;99.90;;;;;;5027345;28;20190;-40